Time;durP1;ratioP1;P1;durP2;ratioP2;P2;SDS_P1;SDS_P2;PMS_P1;PMS_P2;Temp;Humidity;BMP_temperature;BMP_pressure;BME280_temperature;BME280_humidity;BME280_pressure;Samples;Min_cycle;Max_cycle;Signal;HPM_P1;HPM_P2
2022/06/04 00:00:34;;;;;;;10.20;8.50;;;;;;;;;;7384630;19;20153;-79
2022/06/04 00:03:00;;;;;;;9.02;8.13;;;;;;;;;;7385713;19;20143;-80
2022/06/04 00:05:27;;;;;;;9.52;8.07;;;;;;;;;;7393810;19;20210;-80
2022/06/04 00:07:53;;;;;;;10.65;8.38;;;;;;;;;;7388499;19;20128;-80
2022/06/04 00:15:57;;;;;;;9.82;8.05;;;;;;;;;;7378249;19;20614;-79
2022/06/04 00:18:23;;;;;;;10.98;8.35;;;;;;;;;;7377008;19;20153;-79
2022/06/04 00:20:50;;;;;;;9.02;8.00;;;;;;;;;;7389711;19;20133;-80
2022/06/04 00:23:16;;;;;;;9.27;7.22;;;;;;;;;;7385524;19;20129;-79
2022/06/04 00:25:45;;;;;;;9.63;7.82;;;;;;;;;;7377947;19;20145;-79
2022/06/04 00:28:11;;;;;;;10.55;7.95;;;;;;;;;;7386385;19;20536;-79
2022/06/04 00:30:38;;;;;;;11.75;7.50;;;;;;;;;;7378829;19;20117;-79
2022/06/04 00:33:04;;;;;;;10.25;7.53;;;;;;;;;;7380660;19;20148;-81
2022/06/04 00:35:30;;;;;;;8.23;7.43;;;;;;;;;;7379669;19;20247;-78
2022/06/04 00:37:56;;;;;;;10.07;7.28;;;;;;;;;;7383795;19;20594;-81
2022/06/04 00:40:30;;;;;;;8.63;7.63;;;;;;;;;;7387791;19;20128;-79
2022/06/04 00:42:56;;;;;;;8.07;7.00;;;;;;;;;;7379507;19;20682;-80
2022/06/04 00:45:22;;;;;;;8.50;7.30;;;;;;;;;;7387014;19;20145;-79
2022/06/04 00:47:48;;;;;;;9.68;7.10;;;;;;;;;;7384498;19;20140;-79
2022/06/04 00:50:15;;;;;;;7.75;6.82;;;;;;;;;;7384022;19;20140;-79
2022/06/04 00:52:42;;;;;;;7.75;6.90;;;;;;;;;;7389189;19;20196;-79
2022/06/04 00:55:08;;;;;;;8.80;6.88;;;;;;;;;;7391243;19;20148;-79
2022/06/04 00:57:42;;;;;;;8.07;7.28;;;;;;;;;;7390276;19;20145;-80
2022/06/04 01:00:17;;;;;;;10.90;7.57;;;;;;;;;;7385641;19;20212;-79
2022/06/04 01:02:46;;;;;;;8.45;7.20;;;;;;;;;;7383324;19;20180;-79
2022/06/04 01:05:26;;;;;;;10.45;7.13;;;;;;;;;;7387223;19;20121;-79
2022/06/04 01:07:59;;;;;;;7.93;7.10;;;;;;;;;;7379543;19;20651;-79
2022/06/04 01:10:25;;;;;;;8.60;7.72;;;;;;;;;;7380018;19;20149;-80
2022/06/04 01:12:50;;;;;;;8.40;6.97;;;;;;;;;;7386047;19;20165;-80
2022/06/04 01:15:28;;;;;;;8.25;6.57;;;;;;;;;;7391571;19;20156;-82
2022/06/04 01:18:09;;;;;;;9.25;6.95;;;;;;;;;;7387964;19;20192;-80
2022/06/04 01:20:39;;;;;;;8.55;7.10;;;;;;;;;;7382619;19;20153;-80
2022/06/04 01:23:24;;;;;;;9.20;7.68;;;;;;;;;;7378293;19;20507;-80
2022/06/04 01:26:03;;;;;;;7.05;6.35;;;;;;;;;;7372929;19;20148;-79
2022/06/04 01:28:30;;;;;;;10.10;6.50;;;;;;;;;;7374849;19;20152;-79
2022/06/04 01:30:59;;;;;;;10.05;7.15;;;;;;;;;;7375028;19;20555;-79
2022/06/04 01:33:46;;;;;;;10.40;8.38;;;;;;;;;;7383551;19;20199;-81
2022/06/04 01:36:18;;;;;;;9.27;8.07;;;;;;;;;;7386519;19;20168;-83
2022/06/04 01:38:53;;;;;;;10.43;9.43;;;;;;;;;;7378542;19;20406;-80
2022/06/04 01:41:26;;;;;;;8.77;7.38;;;;;;;;;;7375178;19;20243;-80
2022/06/04 01:43:55;;;;;;;12.07;8.25;;;;;;;;;;7382378;19;20144;-82
2022/06/04 01:46:21;;;;;;;12.70;8.88;;;;;;;;;;7380417;19;20148;-79
2022/06/04 01:48:49;;;;;;;10.35;8.02;;;;;;;;;;7379655;19;20136;-80
2022/06/04 01:51:23;;;;;;;10.00;7.93;;;;;;;;;;7377535;19;20167;-79
2022/06/04 01:53:51;;;;;;;11.65;10.43;;;;;;;;;;7381974;19;20130;-83
2022/06/04 01:56:20;;;;;;;12.15;9.25;;;;;;;;;;7378914;19;20157;-79
2022/06/04 01:58:55;;;;;;;11.10;9.50;;;;;;;;;;7385879;19;20148;-79
2022/06/04 02:01:24;;;;;;;10.80;9.63;;;;;;;;;;7384655;19;20151;-82
2022/06/04 02:03:54;;;;;;;11.03;9.77;;;;;;;;;;7379244;19;20247;-79
2022/06/04 02:06:24;;;;;;;12.82;11.07;;;;;;;;;;7375193;19;20149;-79
2022/06/04 02:08:59;;;;;;;13.50;10.50;;;;;;;;;;7379541;19;20125;-80
2022/06/04 02:11:26;;;;;;;11.35;9.98;;;;;;;;;;7385057;19;20155;-81
2022/06/04 02:13:55;;;;;;;13.20;10.80;;;;;;;;;;7385809;19;20144;-80
2022/06/04 02:16:21;;;;;;;11.55;10.07;;;;;;;;;;7379522;19;20168;-80
2022/06/04 02:18:47;;;;;;;11.45;10.35;;;;;;;;;;7383378;19;20215;-79
2022/06/04 02:21:16;;;;;;;10.90;9.65;;;;;;;;;;7381275;19;20160;-80
2022/06/04 02:23:43;;;;;;;11.80;9.27;;;;;;;;;;7388243;19;20140;-80
2022/06/04 02:26:09;;;;;;;10.82;9.00;;;;;;;;;;7392225;19;20638;-80
2022/06/04 02:28:36;;;;;;;12.38;9.27;;;;;;;;;;7384873;19;20506;-80
2022/06/04 02:31:24;;;;;;;12.15;10.07;;;;;;;;;;7386018;19;20132;-78
2022/06/04 02:33:56;;;;;;;10.80;9.35;;;;;;;;;;7390100;19;20120;-78
2022/06/04 02:36:29;;;;;;;10.35;9.25;;;;;;;;;;7384092;19;20160;-78
2022/06/04 02:38:58;;;;;;;10.10;8.82;;;;;;;;;;7379310;19;20137;-79
2022/06/04 02:41:26;;;;;;;11.70;9.43;;;;;;;;;;7384521;19;20126;-78
2022/06/04 02:44:01;;;;;;;10.80;9.75;;;;;;;;;;7376216;19;20148;-79
2022/06/04 02:46:37;;;;;;;12.05;9.82;;;;;;;;;;7380012;19;20156;-79
2022/06/04 02:49:09;;;;;;;11.25;9.75;;;;;;;;;;7376479;19;20148;-79
2022/06/04 02:51:46;;;;;;;11.55;10.15;;;;;;;;;;7375079;19;20529;-79
2022/06/04 02:54:15;;;;;;;10.90;8.85;;;;;;;;;;7379358;19;20133;-80
2022/06/04 02:56:41;;;;;;;10.13;8.45;;;;;;;;;;7407614;19;20137;-79
2022/06/04 02:59:09;;;;;;;10.32;8.48;;;;;;;;;;7413528;19;20161;-79
2022/06/04 03:01:38;;;;;;;10.77;9.43;;;;;;;;;;7418840;19;20156;-83
2022/06/04 03:04:05;;;;;;;11.18;9.85;;;;;;;;;;7406832;19;20148;-79
2022/06/04 03:06:32;;;;;;;11.00;9.05;;;;;;;;;;7400247;19;20170;-78
2022/06/04 03:08:58;;;;;;;9.88;8.88;;;;;;;;;;7385177;19;20141;-81
2022/06/04 03:11:25;;;;;;;10.90;9.52;;;;;;;;;;7376900;19;20156;-78
2022/06/04 03:13:51;;;;;;;12.63;10.23;;;;;;;;;;7376265;19;20189;-79
2022/06/04 03:16:17;;;;;;;10.32;9.38;;;;;;;;;;7381671;19;20152;-78
2022/06/04 03:18:43;;;;;;;11.13;9.35;;;;;;;;;;7375888;19;20180;-79
2022/06/04 03:21:10;;;;;;;12.15;9.77;;;;;;;;;;7379663;19;20152;-78
2022/06/04 03:23:36;;;;;;;11.75;10.57;;;;;;;;;;7381697;19;20172;-79
2022/06/04 03:26:03;;;;;;;11.35;9.77;;;;;;;;;;7377446;19;20145;-78
2022/06/04 03:28:29;;;;;;;12.32;10.27;;;;;;;;;;7380433;19;20165;-79
2022/06/04 03:30:55;;;;;;;11.98;9.48;;;;;;;;;;7379574;19;20152;-79
2022/06/04 03:33:22;;;;;;;14.50;10.60;;;;;;;;;;7375182;19;20156;-80
2022/06/04 03:35:48;;;;;;;15.90;10.85;;;;;;;;;;7381012;19;20164;-79
2022/06/04 03:38:14;;;;;;;11.68;9.68;;;;;;;;;;7376437;19;20129;-79
2022/06/04 03:40:40;;;;;;;11.70;9.80;;;;;;;;;;7368619;19;20146;-80
2022/06/04 03:43:06;;;;;;;14.45;10.13;;;;;;;;;;7373880;19;20109;-79
2022/06/04 03:45:32;;;;;;;11.82;10.60;;;;;;;;;;7374491;19;20152;-80
2022/06/04 03:47:58;;;;;;;11.00;9.67;;;;;;;;;;7367888;19;20129;-79
2022/06/04 03:50:29;;;;;;;12.15;10.18;;;;;;;;;;7372307;19;20449;-81
2022/06/04 03:52:58;;;;;;;11.65;10.45;;;;;;;;;;7378534;19;20236;-79
2022/06/04 03:55:25;;;;;;;12.80;10.38;;;;;;;;;;7370603;19;20182;-79
2022/06/04 03:57:52;;;;;;;15.45;11.43;;;;;;;;;;7366631;19;20140;-79
2022/06/04 04:00:20;;;;;;;16.05;11.65;;;;;;;;;;7368115;19;20149;-80
2022/06/04 04:02:47;;;;;;;13.70;12.13;;;;;;;;;;7369572;19;20132;-79
2022/06/04 04:05:14;;;;;;;16.63;11.80;;;;;;;;;;7383739;19;20199;-78
2022/06/04 04:07:41;;;;;;;14.50;10.85;;;;;;;;;;7386136;19;20462;-79
2022/06/04 04:10:08;;;;;;;11.65;10.45;;;;;;;;;;7382686;19;20139;-80
2022/06/04 04:12:34;;;;;;;9.98;8.98;;;;;;;;;;7384465;19;20204;-80
2022/06/04 04:15:00;;;;;;;12.30;10.10;;;;;;;;;;7377818;19;20153;-80
2022/06/04 04:17:26;;;;;;;11.43;10.13;;;;;;;;;;7384674;19;20284;-79
2022/06/04 04:19:52;;;;;;;11.57;10.35;;;;;;;;;;7388142;19;20129;-79
2022/06/04 04:22:19;;;;;;;12.05;10.75;;;;;;;;;;7392955;19;20148;-80
2022/06/04 04:24:46;;;;;;;14.25;9.68;;;;;;;;;;7393429;19;20121;-79
2022/06/04 04:27:11;;;;;;;13.73;9.77;;;;;;;;;;7389002;19;20212;-79
2022/06/04 04:29:38;;;;;;;12.52;10.13;;;;;;;;;;7391452;19;20628;-79
2022/06/04 04:32:05;;;;;;;8.98;7.65;;;;;;;;;;7392108;19;20166;-78
2022/06/04 04:34:30;;;;;;;11.02;7.85;;;;;;;;;;7393157;19;20611;-78
2022/06/04 04:36:57;;;;;;;7.93;6.75;;;;;;;;;;7384254;19;20178;-80
2022/06/04 04:39:23;;;;;;;9.38;7.43;;;;;;;;;;7388212;19;20121;-80
2022/06/04 04:41:49;;;;;;;8.68;7.78;;;;;;;;;;7383185;19;20151;-78
2022/06/04 04:44:15;;;;;;;8.32;7.07;;;;;;;;;;7386577;19;20498;-78
2022/06/04 04:46:41;;;;;;;10.65;6.25;;;;;;;;;;7378079;19;20140;-78
2022/06/04 04:49:07;;;;;;;7.80;6.18;;;;;;;;;;7380124;19;20156;-77
2022/06/04 04:51:34;;;;;;;8.13;6.30;;;;;;;;;;7386466;19;20190;-78
2022/06/04 04:54:00;;;;;;;6.97;5.97;;;;;;;;;;7376634;19;20144;-78
2022/06/04 04:56:26;;;;;;;9.38;6.70;;;;;;;;;;7365438;19;20172;-79
2022/06/04 04:58:52;;;;;;;10.73;7.00;;;;;;;;;;7376808;19;20129;-77
2022/06/04 05:01:23;;;;;;;10.02;6.57;;;;;;;;;;7384931;19;20254;-77
2022/06/04 05:03:50;;;;;;;9.23;6.30;;;;;;;;;;7383299;19;20143;-78
2022/06/04 05:06:16;;;;;;;7.28;6.10;;;;;;;;;;7371560;19;20153;-78
2022/06/04 05:08:42;;;;;;;7.25;6.55;;;;;;;;;;7379698;19;20125;-76
2022/06/04 05:11:09;;;;;;;10.48;6.55;;;;;;;;;;7390974;19;20519;-77
2022/06/04 05:13:35;;;;;;;6.63;6.03;;;;;;;;;;7387115;19;20495;-77
2022/06/04 05:16:02;;;;;;;8.43;6.70;;;;;;;;;;7380964;19;20543;-78
2022/06/04 05:18:28;;;;;;;11.10;7.47;;;;;;;;;;7387428;19;20541;-77
2022/06/04 05:20:54;;;;;;;9.02;7.18;;;;;;;;;;7384323;19;20145;-77
2022/06/04 05:23:19;;;;;;;9.50;7.13;;;;;;;;;;7390190;19;20659;-78
2022/06/04 05:25:46;;;;;;;11.38;7.93;;;;;;;;;;7388855;19;20158;-77
2022/06/04 05:28:14;;;;;;;10.43;7.53;;;;;;;;;;7385024;19;20607;-77
2022/06/04 05:30:40;;;;;;;9.95;7.93;;;;;;;;;;7381130;19;20146;-79
2022/06/04 05:33:08;;;;;;;8.57;6.63;;;;;;;;;;7383942;19;20125;-78
2022/06/04 05:35:34;;;;;;;6.70;5.43;;;;;;;;;;7383312;19;20159;-78
2022/06/04 05:38:00;;;;;;;6.60;5.78;;;;;;;;;;7386424;19;20611;-79
2022/06/04 05:40:26;;;;;;;8.73;5.68;;;;;;;;;;7388912;19;20488;-78
2022/06/04 05:42:52;;;;;;;5.63;4.95;;;;;;;;;;7378619;19;22282;-79
2022/06/04 05:45:18;;;;;;;6.28;5.22;;;;;;;;;;7381063;19;20225;-78
2022/06/04 05:47:44;;;;;;;9.30;4.78;;;;;;;;;;7386807;19;20181;-78
2022/06/04 05:50:10;;;;;;;6.40;4.95;;;;;;;;;;7382804;19;20159;-78
2022/06/04 05:52:36;;;;;;;5.63;4.30;;;;;;;;;;7383575;19;20158;-79
2022/06/04 05:55:02;;;;;;;6.18;5.30;;;;;;;;;;7386980;19;20151;-78
2022/06/04 05:57:28;;;;;;;8.93;5.25;;;;;;;;;;7383147;19;20133;-78
2022/06/04 05:59:54;;;;;;;5.72;4.78;;;;;;;;;;7386710;19;20508;-78
2022/06/04 06:02:20;;;;;;;3.80;3.45;;;;;;;;;;7389442;19;20145;-78
2022/06/04 06:04:46;;;;;;;4.10;3.70;;;;;;;;;;7385317;19;20498;-78
2022/06/04 06:07:12;;;;;;;5.10;3.83;;;;;;;;;;7383507;19;20159;-78
2022/06/04 06:09:38;;;;;;;6.68;4.50;;;;;;;;;;7379523;19;20792;-78
2022/06/04 06:12:04;;;;;;;4.85;4.07;;;;;;;;;;7386750;19;20503;-78
2022/06/04 06:14:32;;;;;;;4.78;4.30;;;;;;;;;;7385854;19;20198;-78
2022/06/04 06:16:59;;;;;;;6.93;4.18;;;;;;;;;;7384922;19;20179;-78
2022/06/04 06:19:25;;;;;;;4.35;3.65;;;;;;;;;;7388642;19;20125;-78
2022/06/04 06:21:52;;;;;;;7.28;3.67;;;;;;;;;;7390301;19;20232;-78
2022/06/04 06:24:20;;;;;;;3.78;3.47;;;;;;;;;;7390664;19;20181;-79
2022/06/04 06:26:52;;;;;;;5.13;3.50;;;;;;;;;;7387705;19;20157;-78
2022/06/04 06:29:18;;;;;;;4.05;3.53;;;;;;;;;;7395881;19;20133;-79
2022/06/04 06:31:45;;;;;;;4.38;3.33;;;;;;;;;;7392429;19;20163;-78
2022/06/04 06:34:11;;;;;;;3.78;3.47;;;;;;;;;;7394358;19;20633;-78
2022/06/04 06:36:37;;;;;;;5.28;3.55;;;;;;;;;;7393442;19;20137;-78
2022/06/04 06:39:03;;;;;;;4.13;2.88;;;;;;;;;;7395448;19;20109;-78
2022/06/04 06:41:29;;;;;;;3.88;3.10;;;;;;;;;;7385218;19;20129;-79
2022/06/04 06:43:56;;;;;;;4.00;2.90;;;;;;;;;;7389036;19;20121;-79
2022/06/04 06:46:27;;;;;;;5.13;2.78;;;;;;;;;;7378564;19;20194;-78
2022/06/04 06:48:55;;;;;;;4.88;3.00;;;;;;;;;;7387874;19;20161;-78
2022/06/04 06:51:23;;;;;;;5.28;3.25;;;;;;;;;;7386043;19;20156;-80
2022/06/04 06:53:49;;;;;;;5.03;3.70;;;;;;;;;;7385427;19;20133;-77
2022/06/04 06:56:20;;;;;;;3.55;2.80;;;;;;;;;;7375854;19;20172;-77
2022/06/04 06:58:46;;;;;;;2.75;2.55;;;;;;;;;;7377532;19;20234;-76
2022/06/04 07:01:13;;;;;;;3.92;2.50;;;;;;;;;;7377607;19;20358;-76
2022/06/04 07:03:40;;;;;;;3.53;2.35;;;;;;;;;;7374850;19;20173;-76
2022/06/04 07:06:07;;;;;;;3.92;2.75;;;;;;;;;;7374972;19;20169;-76
2022/06/04 07:08:33;;;;;;;5.15;2.72;;;;;;;;;;7375460;19;20169;-76
2022/06/04 07:10:59;;;;;;;3.08;2.33;;;;;;;;;;7393708;19;20124;-76
2022/06/04 07:13:25;;;;;;;2.53;2.20;;;;;;;;;;7396165;19;20137;-78
2022/06/04 07:15:52;;;;;;;2.58;2.20;;;;;;;;;;7394126;19;20177;-78
2022/06/04 07:18:18;;;;;;;2.92;2.50;;;;;;;;;;7389512;19;20646;-76
2022/06/04 07:20:44;;;;;;;4.18;2.50;;;;;;;;;;7385811;19;20113;-76
2022/06/04 07:23:10;;;;;;;4.43;3.03;;;;;;;;;;7379269;19;20159;-77
2022/06/04 07:25:37;;;;;;;3.00;2.30;;;;;;;;;;7383790;19;20199;-74
2022/06/04 07:28:04;;;;;;;3.97;2.40;;;;;;;;;;7388250;19;20132;-75
2022/06/04 07:30:30;;;;;;;5.13;2.80;;;;;;;;;;7380560;19;20144;-76
2022/06/04 07:32:56;;;;;;;4.07;3.20;;;;;;;;;;7387499;19;20177;-76
2022/06/04 07:35:22;;;;;;;4.80;3.17;;;;;;;;;;7384479;19;20175;-76
2022/06/04 07:37:49;;;;;;;3.75;2.63;;;;;;;;;;7379753;19;20161;-78
2022/06/04 07:40:15;;;;;;;4.78;2.80;;;;;;;;;;7382767;19;20590;-78
2022/06/04 07:42:42;;;;;;;3.47;2.42;;;;;;;;;;7365779;19;20146;-79
2022/06/04 07:45:08;;;;;;;4.07;2.40;;;;;;;;;;7368691;19;20137;-78
2022/06/04 07:47:34;;;;;;;4.13;2.47;;;;;;;;;;7375539;19;20228;-77
2022/06/04 07:50:01;;;;;;;4.90;3.47;;;;;;;;;;7382484;19;20149;-78
2022/06/04 07:52:27;;;;;;;2.40;2.20;;;;;;;;;;7384200;19;20160;-78
2022/06/04 07:54:53;;;;;;;4.63;3.05;;;;;;;;;;7380512;19;20523;-78
2022/06/04 07:57:19;;;;;;;3.38;2.72;;;;;;;;;;7382785;19;20543;-78
2022/06/04 07:59:45;;;;;;;2.88;2.40;;;;;;;;;;7382311;19;20140;-80
2022/06/04 08:02:12;;;;;;;2.42;2.22;;;;;;;;;;7387166;19;20141;-79
2022/06/04 08:04:38;;;;;;;3.63;2.67;;;;;;;;;;7384512;19;20148;-76
2022/06/04 08:07:04;;;;;;;3.45;2.63;;;;;;;;;;7381326;19;20747;-79
2022/06/04 08:09:31;;;;;;;5.15;2.60;;;;;;;;;;7387427;19;20121;-79
2022/06/04 08:11:57;;;;;;;4.22;2.38;;;;;;;;;;7387834;19;20137;-79
2022/06/04 08:14:24;;;;;;;3.65;2.63;;;;;;;;;;7384544;19;20373;-77
2022/06/04 08:16:52;;;;;;;3.60;2.40;;;;;;;;;;7388344;19;20161;-79
2022/06/04 08:19:18;;;;;;;3.90;2.88;;;;;;;;;;7383997;19;20137;-78
2022/06/04 08:21:44;;;;;;;3.28;2.53;;;;;;;;;;7387718;19;20168;-79
2022/06/04 08:24:11;;;;;;;3.47;2.40;;;;;;;;;;7388589;19;20142;-75
2022/06/04 08:26:37;;;;;;;2.53;2.20;;;;;;;;;;7377653;19;20161;-79
2022/06/04 08:29:03;;;;;;;3.30;2.45;;;;;;;;;;7384746;19;20149;-76
2022/06/04 08:31:29;;;;;;;2.40;2.20;;;;;;;;;;7382770;19;20125;-78
2022/06/04 08:33:55;;;;;;;2.50;2.20;;;;;;;;;;7370382;19;20121;-77
2022/06/04 08:36:21;;;;;;;4.32;2.60;;;;;;;;;;7369944;19;20152;-77
2022/06/04 08:38:48;;;;;;;2.30;2.10;;;;;;;;;;7365086;19;20192;-77
2022/06/04 08:41:38;;;;;;;3.72;2.20;;;;;;;;;;7369801;19;20136;-76
2022/06/04 08:44:14;;;;;;;3.22;2.15;;;;;;;;;;7372724;19;20167;-77
2022/06/04 08:46:42;;;;;;;3.10;2.20;;;;;;;;;;7368171;19;20670;-78
2022/06/04 08:49:17;;;;;;;5.22;2.25;;;;;;;;;;7377696;19;20161;-77
2022/06/04 08:51:43;;;;;;;2.63;2.42;;;;;;;;;;7386845;19;20166;-78
2022/06/04 08:59:45;;;;;;;5.15;2.47;;;;;;;;;;7391706;19;20127;-78
2022/06/04 09:02:14;;;;;;;2.22;2.10;;;;;;;;;;7392301;19;20217;-78
2022/06/04 09:04:40;;;;;;;7.22;2.97;;;;;;;;;;7390087;19;20627;-77
2022/06/04 09:07:24;;;;;;;2.58;2.20;;;;;;;;;;7392744;19;20148;-78
2022/06/04 09:09:55;;;;;;;4.35;2.58;;;;;;;;;;7397766;19;20655;-78
2022/06/04 09:12:40;;;;;;;2.70;2.50;;;;;;;;;;7397731;19;20161;-78
2022/06/04 09:15:18;;;;;;;3.75;2.38;;;;;;;;;;7390697;19;20148;-78
2022/06/04 09:17:48;;;;;;;3.28;2.63;;;;;;;;;;7375156;19;20177;-77
2022/06/04 09:20:17;;;;;;;3.72;2.30;;;;;;;;;;7386793;19;20129;-79
2022/06/04 09:22:44;;;;;;;4.72;2.47;;;;;;;;;;7389270;19;20125;-79
2022/06/04 09:25:13;;;;;;;4.38;2.60;;;;;;;;;;7387630;19;20557;-79
2022/06/04 09:28:15;;;;;;;3.50;2.20;;;;;;;;;;7386106;19;20170;-79
2022/06/04 09:30:44;;;;;;;2.88;2.40;;;;;;;;;;7409544;19;20132;-78
2022/06/04 09:33:32;;;;;;;3.92;2.28;;;;;;;;;;7421981;19;20177;-77
2022/06/04 09:35:58;;;;;;;3.00;2.33;;;;;;;;;;7420686;19;20178;-78
2022/06/04 09:38:32;;;;;;;2.95;2.22;;;;;;;;;;7423117;19;20140;-78
2022/06/04 09:41:06;;;;;;;3.47;2.08;;;;;;;;;;7403955;19;20129;-78
2022/06/04 09:43:32;;;;;;;2.95;1.80;;;;;;;;;;7387669;19;20232;-78
2022/06/04 09:46:00;;;;;;;2.42;2.00;;;;;;;;;;7375742;19;20267;-78
2022/06/04 09:48:30;;;;;;;3.13;2.08;;;;;;;;;;7374106;19;20216;-78
2022/06/04 09:50:58;;;;;;;2.95;2.20;;;;;;;;;;7383172;19;20133;-78
2022/06/04 09:53:29;;;;;;;4.13;2.13;;;;;;;;;;7385052;19;20148;-77
2022/06/04 09:56:05;;;;;;;4.28;2.22;;;;;;;;;;7387800;19;20625;-77
2022/06/04 09:58:33;;;;;;;2.83;1.80;;;;;;;;;;7385455;19;20141;-78
2022/06/04 10:01:04;;;;;;;3.88;2.55;;;;;;;;;;7386643;19;20687;-77
2022/06/04 10:03:31;;;;;;;4.13;2.13;;;;;;;;;;7383582;19;20144;-77
2022/06/04 10:06:13;;;;;;;3.30;2.28;;;;;;;;;;7388851;19;20368;-78
2022/06/04 10:11:34;;;;;;;3.72;2.10;;;;;;;;;;7382761;19;20990;-78
2022/06/04 10:14:00;;;;;;;3.50;1.92;;;;;;;;;;7376528;19;20275;-78
2022/06/04 10:16:36;;;;;;;2.30;1.92;;;;;;;;;;7379279;19;20175;-78
2022/06/04 10:19:04;;;;;;;3.17;1.88;;;;;;;;;;7373909;19;20505;-78
2022/06/04 10:21:35;;;;;;;3.00;1.60;;;;;;;;;;7377335;19;20627;-77
2022/06/04 10:24:05;;;;;;;2.78;1.65;;;;;;;;;;7383099;19;20149;-77
2022/06/04 10:26:37;;;;;;;2.63;1.75;;;;;;;;;;7379857;19;20736;-77
2022/06/04 10:29:17;;;;;;;2.25;1.95;;;;;;;;;;7381893;19;20164;-78
2022/06/04 10:31:46;;;;;;;5.05;2.10;;;;;;;;;;7383083;19;20132;-78
2022/06/04 10:34:24;;;;;;;3.60;1.92;;;;;;;;;;7379090;19;20133;-78
2022/06/04 10:36:50;;;;;;;3.90;1.70;;;;;;;;;;7363978;19;20572;-78
2022/06/04 10:39:23;;;;;;;2.83;1.67;;;;;;;;;;7372737;19;20136;-77
2022/06/04 10:41:53;;;;;;;2.72;1.80;;;;;;;;;;7374180;19;20176;-78
2022/06/04 10:44:38;;;;;;;2.40;1.70;;;;;;;;;;7373702;19;20555;-78
2022/06/04 10:47:15;;;;;;;2.10;1.77;;;;;;;;;;7374319;19;20179;-78
2022/06/04 10:49:52;;;;;;;2.97;2.15;;;;;;;;;;7381873;19;20200;-78
2022/06/04 10:52:24;;;;;;;4.15;1.95;;;;;;;;;;7384277;19;20133;-78
2022/06/04 10:54:59;;;;;;;3.95;2.15;;;;;;;;;;7381179;19;20152;-78
2022/06/04 10:57:32;;;;;;;4.63;2.40;;;;;;;;;;7382930;19;20666;-78
2022/06/04 11:00:01;;;;;;;2.65;1.98;;;;;;;;;;7382567;19;20161;-77
2022/06/04 11:02:27;;;;;;;4.07;2.08;;;;;;;;;;7383598;19;20159;-78
2022/06/04 11:05:28;;;;;;;5.53;2.40;;;;;;;;;;7381836;19;20149;-77
2022/06/04 11:08:06;;;;;;;3.30;2.10;;;;;;;;;;7377813;19;20140;-78
2022/06/04 11:10:41;;;;;;;3.33;2.10;;;;;;;;;;7378885;19;20494;-77
2022/06/04 11:13:12;;;;;;;2.58;2.20;;;;;;;;;;7376853;19;20139;-78
2022/06/04 11:15:59;;;;;;;4.40;2.42;;;;;;;;;;7381938;19;20168;-78
2022/06/04 11:18:28;;;;;;;3.00;2.20;;;;;;;;;;7377265;19;20524;-77
2022/06/04 11:21:03;;;;;;;3.00;1.90;;;;;;;;;;7382101;19;20153;-78
2022/06/04 11:23:33;;;;;;;4.07;2.20;;;;;;;;;;7384094;19;20153;-78
2022/06/04 11:26:03;;;;;;;3.90;2.10;;;;;;;;;;7377923;19;20204;-77
2022/06/04 11:28:30;;;;;;;3.70;2.20;;;;;;;;;;7379841;19;20152;-78
2022/06/04 11:31:08;;;;;;;3.25;2.28;;;;;;;;;;7384951;19;20129;-78
2022/06/04 11:33:49;;;;;;;2.22;1.85;;;;;;;;;;7384658;19;20159;-78
2022/06/04 11:36:21;;;;;;;5.90;2.25;;;;;;;;;;7382471;19;20486;-77
2022/06/04 11:38:47;;;;;;;3.28;2.15;;;;;;;;;;7382532;19;20144;-78
2022/06/04 11:41:42;;;;;;;3.05;2.17;;;;;;;;;;7382639;19;20208;-78
2022/06/04 11:44:41;;;;;;;3.67;2.28;;;;;;;;;;7375627;19;20164;-78
2022/06/04 11:47:15;;;;;;;3.40;2.33;;;;;;;;;;7377791;19;20595;-78
2022/06/04 11:49:45;;;;;;;2.20;2.00;;;;;;;;;;7377936;19;20442;-78
2022/06/04 11:52:29;;;;;;;3.55;2.63;;;;;;;;;;7382362;19;20140;-77
2022/06/04 11:54:54;;;;;;;4.32;2.50;;;;;;;;;;7382736;19;20119;-78
2022/06/04 11:57:24;;;;;;;4.65;2.30;;;;;;;;;;7387449;19;20606;-78
2022/06/04 12:00:03;;;;;;;4.15;2.25;;;;;;;;;;7372920;19;20181;-78
2022/06/04 12:02:37;;;;;;;4.53;2.08;;;;;;;;;;7390268;19;20125;-78
2022/06/04 12:05:03;;;;;;;4.65;2.40;;;;;;;;;;7387892;19;20475;-78
2022/06/04 12:07:51;;;;;;;4.43;2.40;;;;;;;;;;7382002;19;20149;-79
2022/06/04 12:10:23;;;;;;;7.80;2.47;;;;;;;;;;7385769;19;20204;-78
2022/06/04 12:12:57;;;;;;;3.50;2.17;;;;;;;;;;7385306;19;20601;-78
2022/06/04 12:15:32;;;;;;;5.97;2.42;;;;;;;;;;7384316;19;20155;-78
2022/06/04 12:18:05;;;;;;;7.82;2.67;;;;;;;;;;7374335;19;20488;-78
2022/06/04 12:26:18;;;;;;;5.35;2.33;;;;;;;;;;7389534;19;20160;-78
2022/06/04 12:28:44;;;;;;;6.00;3.05;;;;;;;;;;7392830;19;20185;-78
2022/06/04 12:31:10;;;;;;;7.00;2.45;;;;;;;;;;7395344;19;20113;-78
2022/06/04 12:33:41;;;;;;;7.07;2.80;;;;;;;;;;7394135;19;20426;-79
2022/06/04 12:36:09;;;;;;;4.70;2.70;;;;;;;;;;7384234;19;20174;-78
2022/06/04 12:38:37;;;;;;;5.28;2.33;;;;;;;;;;7385479;19;20141;-79
2022/06/04 12:41:10;;;;;;;6.30;2.83;;;;;;;;;;7387794;19;20510;-78
2022/06/04 12:43:38;;;;;;;5.90;2.85;;;;;;;;;;7389107;19;20168;-78
2022/06/04 12:46:22;;;;;;;8.13;2.90;;;;;;;;;;7389831;19;20172;-78
2022/06/04 12:49:07;;;;;;;6.50;3.00;;;;;;;;;;7383042;19;20156;-78
2022/06/04 12:51:50;;;;;;;7.63;3.20;;;;;;;;;;7389001;19;20710;-79
2022/06/04 12:54:19;;;;;;;5.70;2.47;;;;;;;;;;7387626;19;20128;-79
2022/06/04 12:56:51;;;;;;;3.33;2.55;;;;;;;;;;7385115;19;20172;-79
2022/06/04 12:59:47;;;;;;;5.50;2.60;;;;;;;;;;7385313;19;20160;-78
2022/06/04 13:02:25;;;;;;;8.13;2.85;;;;;;;;;;7383137;19;20153;-79
2022/06/04 13:05:06;;;;;;;7.47;3.38;;;;;;;;;;7385814;19;20140;-79
2022/06/04 13:07:36;;;;;;;4.22;2.40;;;;;;;;;;7391809;19;20121;-79
2022/06/04 13:10:05;;;;;;;6.05;2.63;;;;;;;;;;7386644;19;20537;-79
2022/06/04 13:12:42;;;;;;;4.93;2.58;;;;;;;;;;7382649;19;20246;-78
2022/06/04 13:19:42;;;;;;;7.53;3.60;;;;;;;;;;7381151;19;20223;-78
2022/06/04 13:22:15;;;;;;;6.53;2.67;;;;;;;;;;7391375;19;20144;-79
2022/06/04 13:24:41;;;;;;;5.68;3.20;;;;;;;;;;7382602;19;20532;-79
2022/06/04 13:27:11;;;;;;;10.82;2.95;;;;;;;;;;7377342;19;20485;-79
2022/06/04 13:29:38;;;;;;;5.22;2.80;;;;;;;;;;7386693;19;20266;-79
2022/06/04 13:32:14;;;;;;;5.70;2.67;;;;;;;;;;7392340;19;20594;-79
2022/06/04 13:34:41;;;;;;;5.30;2.92;;;;;;;;;;7384216;19;20132;-79
2022/06/04 13:37:18;;;;;;;8.80;3.25;;;;;;;;;;7375018;19;20188;-79
2022/06/04 13:39:47;;;;;;;8.15;2.50;;;;;;;;;;7387932;19;20686;-80
2022/06/04 13:42:39;;;;;;;6.72;3.17;;;;;;;;;;7423194;19;20124;-80
2022/06/04 13:45:19;;;;;;;7.45;3.03;;;;;;;;;;7423223;19;20152;-80
2022/06/04 13:47:53;;;;;;;5.07;2.90;;;;;;;;;;7415782;19;20139;-79
2022/06/04 13:50:22;;;;;;;8.02;2.50;;;;;;;;;;7409663;19;20127;-79
2022/06/04 13:53:14;;;;;;;5.65;2.60;;;;;;;;;;7377993;19;20148;-78
2022/06/04 13:55:54;;;;;;;5.05;2.67;;;;;;;;;;7382701;19;20156;-79
2022/06/04 13:58:29;;;;;;;6.30;3.33;;;;;;;;;;7384791;19;20138;-78
2022/06/04 14:01:01;;;;;;;6.85;3.50;;;;;;;;;;7385126;19;20148;-78
2022/06/04 14:03:32;;;;;;;6.82;3.40;;;;;;;;;;7379629;19;20156;-78
2022/06/04 14:05:58;;;;;;;7.45;2.83;;;;;;;;;;7379507;19;20523;-78
2022/06/04 14:08:30;;;;;;;5.65;2.85;;;;;;;;;;7378359;19;20124;-78
2022/06/04 14:11:12;;;;;;;8.68;3.50;;;;;;;;;;7384677;19;20148;-78
2022/06/04 14:13:57;;;;;;;9.30;3.63;;;;;;;;;;7377903;19;20137;-78
2022/06/04 14:16:35;;;;;;;4.65;2.78;;;;;;;;;;7375838;19;20151;-78
2022/06/04 14:19:04;;;;;;;10.88;3.53;;;;;;;;;;7377515;19;20212;-79
2022/06/04 14:21:33;;;;;;;6.60;3.20;;;;;;;;;;7377985;19;20151;-78
2022/06/04 14:24:02;;;;;;;5.95;3.33;;;;;;;;;;7384389;19;20140;-78
2022/06/04 14:26:43;;;;;;;8.88;2.80;;;;;;;;;;7372628;19;20140;-78
2022/06/04 14:29:21;;;;;;;9.68;3.38;;;;;;;;;;7378635;19;22155;-79
2022/06/04 14:31:58;;;;;;;10.40;3.70;;;;;;;;;;7377762;19;20304;-78
2022/06/04 14:34:28;;;;;;;6.82;3.22;;;;;;;;;;7376902;19;20152;-79
2022/06/04 14:36:55;;;;;;;9.57;3.25;;;;;;;;;;7370930;19;20172;-79
2022/06/04 14:39:22;;;;;;;11.27;3.40;;;;;;;;;;7377242;19;20139;-78
2022/06/04 14:42:02;;;;;;;5.18;2.80;;;;;;;;;;7380882;19;20132;-79
2022/06/04 14:44:28;;;;;;;8.00;4.07;;;;;;;;;;7377898;19;20157;-79
2022/06/04 14:47:09;;;;;;;8.63;3.28;;;;;;;;;;7378377;19;20152;-79
2022/06/04 14:49:53;;;;;;;9.45;3.33;;;;;;;;;;7378924;19;20149;-79
2022/06/04 14:52:22;;;;;;;7.40;3.60;;;;;;;;;;7372451;19;20141;-79
2022/06/04 14:54:49;;;;;;;8.77;4.68;;;;;;;;;;7385180;19;20501;-79
2022/06/04 14:57:25;;;;;;;8.63;3.15;;;;;;;;;;7381878;19;20156;-79
2022/06/04 15:00:07;;;;;;;8.20;3.10;;;;;;;;;;7374946;19;20538;-79
2022/06/04 15:02:33;;;;;;;5.97;3.30;;;;;;;;;;7387166;19;20135;-79
2022/06/04 15:05:17;;;;;;;7.88;3.83;;;;;;;;;;7385794;19;20137;-79
2022/06/04 15:07:55;;;;;;;9.68;3.22;;;;;;;;;;7376620;19;20247;-79
2022/06/04 15:10:21;;;;;;;6.25;3.00;;;;;;;;;;7372955;19;20163;-79
2022/06/04 15:12:47;;;;;;;9.05;3.50;;;;;;;;;;7378220;19;20590;-79
2022/06/04 15:15:36;;;;;;;5.07;2.90;;;;;;;;;;7380396;19;20555;-79
2022/06/04 15:18:11;;;;;;;10.82;3.75;;;;;;;;;;7379460;19;24358;-79
2022/06/04 15:20:55;;;;;;;6.65;3.47;;;;;;;;;;7369623;19;20151;-78